Time;durP1;ratioP1;P1;durP2;ratioP2;P2;SDS_P1;SDS_P2;PMS_P1;PMS_P2;Temp;Humidity;BMP_temperature;BMP_pressure;BME280_temperature;BME280_humidity;BME280_pressure;Samples;Min_cycle;Max_cycle;Signal;HPM_P1;HPM_P2
2021/12/14 00:00:59;;;;;;;42.47;17.40;;;;;;;-0.69;68.14;99970.91;5060210;28;20469;-68
2021/12/14 00:03:30;;;;;;;44.13;18.10;;;;;;;-0.68;67.98;99974.41;5065823;28;20060;-68
2021/12/14 00:05:57;;;;;;;39.58;16.20;;;;;;;-0.68;68.11;99977.09;5061035;28;20060;-68
2021/12/14 00:08:25;;;;;;;47.45;18.27;;;;;;;-0.67;67.95;99963.47;5068513;28;20509;-68
2021/12/14 00:11:13;;;;;;;45.95;18.25;;;;;;;-0.65;67.94;99971.31;5057329;28;20612;-68
2021/12/14 00:13:51;;;;;;;50.20;18.38;;;;;;;-0.64;67.73;99971.13;5064511;28;20049;-68
2021/12/14 00:16:17;;;;;;;52.25;19.08;;;;;;;-0.62;67.80;99969.06;5060691;28;20044;-67
2021/12/14 00:18:43;;;;;;;51.00;19.80;;;;;;;-0.68;67.85;99972.56;5048280;28;20110;-68
2021/12/14 00:21:18;;;;;;;55.15;20.48;;;;;;;-0.70;68.03;99974.63;5066021;28;20048;-67
2021/12/14 00:26:33;;;;;;;52.50;19.85;;;;;;;-0.72;68.01;99988.22;5058017;28;20059;-68
2021/12/14 00:29:02;;;;;;;48.47;20.70;;;;;;;-0.75;67.95;99979.72;5065380;28;20041;-68
2021/12/14 00:31:28;;;;;;;44.83;19.95;;;;;;;-0.78;68.04;99974.75;5077852;28;20095;-68
2021/12/14 00:33:59;;;;;;;43.25;18.98;;;;;;;-0.72;68.04;99987.38;5064402;28;20532;-68
2021/12/14 00:36:25;;;;;;;53.60;19.90;;;;;;;-0.69;67.83;99989.69;5070959;28;20117;-67
2021/12/14 00:38:56;;;;;;;48.33;18.63;;;;;;;-0.68;67.85;99982.44;5067135;28;20045;-69
2021/12/14 00:41:26;;;;;;;48.60;20.75;;;;;;;-0.70;67.79;99988.03;5071583;28;20485;-69
2021/12/14 00:43:52;;;;;;;46.50;19.50;;;;;;;-0.70;67.81;99995.25;5069256;28;20037;-69
2021/12/14 00:46:21;;;;;;;44.05;18.85;;;;;;;-0.71;67.76;99999.78;5070069;28;20040;-68
2021/12/14 00:48:50;;;;;;;42.72;18.13;;;;;;;-0.74;67.91;99990.28;5060635;28;20139;-68
2021/12/14 00:51:21;;;;;;;47.25;19.52;;;;;;;-0.71;67.88;99991.72;5064002;28;20048;-68
2021/12/14 00:53:48;;;;;;;47.83;19.40;;;;;;;-0.71;67.62;99983.66;5040996;28;20032;-68
2021/12/14 00:56:16;;;;;;;48.63;19.40;;;;;;;-0.67;67.52;99989.47;5062700;28;22317;-70
2021/12/14 00:58:42;;;;;;;44.88;18.05;;;;;;;-0.73;67.81;99980.34;5067318;28;20040;-69
2021/12/14 01:01:14;;;;;;;45.53;18.90;;;;;;;-0.69;67.69;99981.66;5070457;28;20056;-69
2021/12/14 01:03:45;;;;;;;43.72;18.50;;;;;;;-0.68;67.70;99979.78;5063739;28;20197;-71
2021/12/14 01:06:12;;;;;;;51.85;19.52;;;;;;;-0.75;67.66;99980.56;5058347;28;20083;-68
2021/12/14 01:08:41;;;;;;;41.33;17.75;;;;;;;-0.80;67.64;99972.25;5061003;28;20132;-69
2021/12/14 01:11:14;;;;;;;50.63;19.30;;;;;;;-0.75;67.70;99977.03;5057155;28;20048;-69
2021/12/14 01:13:49;;;;;;;47.67;19.00;;;;;;;-0.72;67.62;99977.47;5062779;28;20043;-70
2021/12/14 01:16:30;;;;;;;48.22;18.05;;;;;;;-0.71;67.48;99964.88;5058449;28;20037;-70
2021/12/14 01:19:13;;;;;;;42.90;17.63;;;;;;;-0.74;67.52;99962.59;5066981;28;20049;-70
2021/12/14 01:27:09;;;;;;;47.58;18.27;;;;;;;-0.75;67.49;99980.56;5073708;28;20068;-70
2021/12/14 01:29:36;;;;;;;45.42;17.95;;;;;;;-0.70;67.41;99992.56;5066996;28;20269;-70
2021/12/14 01:32:05;;;;;;;51.67;18.20;;;;;;;-0.73;67.36;99981.19;5045566;28;20279;-69
2021/12/14 01:34:35;;;;;;;50.33;16.92;;;;;;;-0.76;67.46;99970.00;5064349;28;20328;-70
2021/12/14 01:37:07;;;;;;;46.17;17.58;;;;;;;-0.75;67.63;99972.50;5061557;28;20040;-70
2021/12/14 01:42:07;;;;;;;42.17;16.48;;;;;;;-0.80;67.56;99971.44;5040832;28;20106;-69
2021/12/14 01:44:40;;;;;;;35.90;15.43;;;;;;;-0.78;67.43;99967.53;5069254;28;20121;-69
2021/12/14 01:47:13;;;;;;;36.70;15.05;;;;;;;-0.75;67.41;99969.81;5060747;28;20052;-70
2021/12/14 01:50:11;;;;;;;41.38;16.77;;;;;;;-0.79;67.37;99968.53;5034621;28;20059;-70
2021/12/14 01:52:55;;;;;;;37.05;14.65;;;;;;;-0.78;67.50;99972.91;5062429;28;20131;-70
2021/12/14 01:55:25;;;;;;;35.30;15.13;;;;;;;-0.79;67.46;99967.72;5044116;28;20426;-70
2021/12/14 01:57:54;;;;;;;38.70;14.52;;;;;;;-0.82;67.42;99968.94;5071991;28;20467;-70
2021/12/14 02:00:25;;;;;;;39.10;14.82;;;;;;;-0.90;67.74;99969.09;5063762;28;20497;-70
2021/12/14 02:02:52;;;;;;;38.65;15.88;;;;;;;-0.92;67.55;99966.59;5059408;28;20390;-70
2021/12/14 02:05:26;;;;;;;48.10;15.30;;;;;;;-0.87;67.65;99964.13;5069691;28;20049;-70
2021/12/14 02:07:54;;;;;;;34.25;14.15;;;;;;;-0.86;67.47;99948.88;5065430;28;20040;-70
2021/12/14 02:10:25;;;;;;;33.47;14.75;;;;;;;-0.80;67.47;99948.06;5062665;28;20087;-69
2021/12/14 02:12:52;;;;;;;39.92;15.18;;;;;;;-0.82;67.49;99952.81;5069694;28;20131;-69
2021/12/14 02:15:22;;;;;;;44.70;16.40;;;;;;;-0.79;67.32;99952.41;5068304;28;20067;-69
2021/12/14 02:17:52;;;;;;;51.05;16.65;;;;;;;-0.80;67.32;99949.94;5064353;28;20041;-69
2021/12/14 02:20:26;;;;;;;37.80;16.15;;;;;;;-0.76;67.36;99954.75;5062655;28;20052;-69
2021/12/14 02:22:55;;;;;;;37.45;16.08;;;;;;;-0.74;67.21;99952.69;5062247;28;20052;-70
2021/12/14 02:25:21;;;;;;;39.13;16.80;;;;;;;-0.76;67.21;99951.22;5060771;28;20049;-70
2021/12/14 02:27:51;;;;;;;44.10;17.80;;;;;;;-0.74;67.30;99954.53;5057526;28;20040;-70
2021/12/14 02:30:28;;;;;;;44.08;16.02;;;;;;;-0.81;67.34;99941.06;5061847;28;20131;-69
2021/12/14 02:32:57;;;;;;;41.70;15.88;;;;;;;-0.83;67.41;99948.47;5066803;28;20041;-70
2021/12/14 02:35:27;;;;;;;44.40;16.80;;;;;;;-0.86;67.56;99944.34;5068071;28;20571;-67
2021/12/14 02:38:00;;;;;;;36.33;15.75;;;;;;;-0.81;67.22;99948.28;5062579;28;20041;-67
2021/12/14 02:43:16;;;;;;;45.45;16.60;;;;;;;-0.76;67.33;99953.91;5064249;28;20048;-67
2021/12/14 02:45:42;;;;;;;43.83;16.73;;;;;;;-0.74;67.28;99963.44;5064887;28;20051;-67
2021/12/14 02:48:09;;;;;;;48.13;16.80;;;;;;;-0.77;67.21;99969.19;5066137;28;20528;-66
2021/12/14 02:50:36;;;;;;;44.15;16.52;;;;;;;-0.72;67.22;99973.94;5063179;28;20375;-66
2021/12/14 02:53:05;;;;;;;36.97;16.67;;;;;;;-0.70;67.01;99971.94;5065197;28;20140;-65
2021/12/14 02:55:33;;;;;;;41.58;16.83;;;;;;;-0.74;67.13;99958.06;5048308;28;20048;-65
2021/12/14 02:58:05;;;;;;;42.85;16.90;;;;;;;-0.72;67.12;99968.59;5022948;28;20115;-66
2021/12/14 03:00:36;;;;;;;37.97;16.45;;;;;;;-0.73;67.15;99969.59;5047694;28;20494;-65
2021/12/14 03:03:10;;;;;;;42.15;16.52;;;;;;;-0.76;67.19;99970.00;5051251;28;20040;-66
2021/12/14 03:05:39;;;;;;;46.03;17.65;;;;;;;-0.81;67.46;99967.09;5064979;28;20044;-67
2021/12/14 03:08:13;;;;;;;48.15;16.67;;;;;;;-0.84;67.52;99962.94;5062725;28;20053;-67
2021/12/14 03:13:46;;;;;;;45.25;16.35;;;;;;;-0.80;67.15;99956.13;5052082;28;20051;-67
2021/12/14 03:16:17;;;;;;;41.45;15.70;;;;;;;-0.79;67.24;99948.91;5067385;28;20509;-67
2021/12/14 03:18:49;;;;;;;38.50;14.98;;;;;;;-0.77;67.23;99953.09;5056888;28;20048;-67
2021/12/14 03:21:19;;;;;;;35.75;14.98;;;;;;;-0.74;67.12;99949.16;5062373;28;20053;-67
2021/12/14 03:23:50;;;;;;;40.88;15.13;;;;;;;-0.73;66.84;99946.28;5062206;28;20421;-66
2021/12/14 03:26:22;;;;;;;39.97;14.82;;;;;;;-0.77;67.01;99945.03;5049799;28;20052;-67
2021/12/14 03:28:52;;;;;;;40.05;14.63;;;;;;;-0.75;66.94;99951.03;5061650;28;20044;-66
2021/12/14 03:31:25;;;;;;;33.35;14.07;;;;;;;-0.77;66.87;99953.09;5068468;28;20539;-67
2021/12/14 03:33:55;;;;;;;40.28;15.60;;;;;;;-0.79;67.03;99948.91;5046574;28;20569;-67
2021/12/14 03:36:25;;;;;;;38.85;14.20;;;;;;;-0.78;66.89;99956.78;5053314;28;20110;-66
2021/12/14 03:38:59;;;;;;;36.88;14.20;;;;;;;-0.78;66.84;99958.63;5065139;28;20041;-67
2021/12/14 03:41:30;;;;;;;36.65;13.82;;;;;;;-0.78;66.87;99951.41;5059758;28;20037;-67
2021/12/14 03:44:02;;;;;;;35.17;15.45;;;;;;;-0.70;66.72;99955.81;5070372;28;20044;-67
2021/12/14 03:46:38;;;;;;;45.85;16.40;;;;;;;-0.74;66.69;99962.59;5066645;28;20051;-67
2021/12/14 03:49:07;;;;;;;40.38;16.95;;;;;;;-0.76;66.83;99967.31;5068080;28;20057;-65
2021/12/14 03:51:33;;;;;;;36.90;16.58;;;;;;;-0.76;66.71;99960.09;5068066;28;20135;-68
2021/12/14 03:54:01;;;;;;;38.08;16.45;;;;;;;-0.75;66.77;99958.25;5070131;28;20040;-67
2021/12/14 03:56:28;;;;;;;37.97;15.52;;;;;;;-0.80;66.88;99960.69;5067055;28;20086;-68
2021/12/14 03:58:55;;;;;;;36.95;14.70;;;;;;;-0.77;66.75;99963.81;5064375;28;20071;-68
2021/12/14 04:01:25;;;;;;;40.55;15.63;;;;;;;-0.80;66.76;99953.44;5061022;28;20045;-68
2021/12/14 04:04:03;;;;;;;33.17;14.55;;;;;;;-0.85;66.74;99955.91;5057714;28;20045;-68
2021/12/14 04:06:34;;;;;;;41.78;15.75;;;;;;;-0.86;67.03;99955.09;5064195;28;20190;-66
2021/12/14 04:09:04;;;;;;;37.45;15.50;;;;;;;-0.81;66.86;99964.41;5066422;28;20059;-67
2021/12/14 04:11:32;;;;;;;34.17;14.45;;;;;;;-0.76;66.85;99972.69;5065026;28;20067;-68
2021/12/14 04:13:59;;;;;;;35.00;14.07;;;;;;;-0.79;66.71;99967.72;5070901;28;20454;-67
2021/12/14 04:16:34;;;;;;;47.38;15.18;;;;;;;-0.80;66.73;99966.88;5047305;28;20421;-67
2021/12/14 04:19:05;;;;;;;40.67;15.30;;;;;;;-0.83;66.94;99961.09;5045879;28;20575;-66
2021/12/14 04:21:34;;;;;;;38.70;14.05;;;;;;;-0.83;66.85;99964.59;5042458;28;20091;-66
2021/12/14 04:24:05;;;;;;;40.15;14.63;;;;;;;-0.76;66.44;99960.09;5064253;28;20048;-65
2021/12/14 04:26:32;;;;;;;35.88;15.65;;;;;;;-0.78;66.44;99970.22;5049596;28;20040;-66
2021/12/14 04:29:00;;;;;;;34.55;14.18;;;;;;;-0.81;66.74;99964.41;5044179;28;20047;-66
2021/12/14 04:31:27;;;;;;;38.92;15.35;;;;;;;-0.81;66.64;99964.41;5050727;28;20058;-66
2021/12/14 04:33:58;;;;;;;36.03;14.95;;;;;;;-0.84;66.69;99968.31;5062381;28;20040;-66
2021/12/14 04:36:26;;;;;;;38.15;15.10;;;;;;;-0.89;66.58;99960.00;5063044;28;20083;-66
2021/12/14 04:38:57;;;;;;;41.47;14.80;;;;;;;-0.82;66.63;99977.00;5055776;28;20056;-66
2021/12/14 04:52:38;;;;;;;40.00;17.48;;;;;;;-0.84;66.65;99976.34;5066853;28;20052;-66
2021/12/14 04:55:09;;;;;;;42.90;17.45;;;;;;;-0.84;66.55;99981.72;5068255;28;20056;-66
2021/12/14 04:57:43;;;;;;;38.63;15.80;;;;;;;-0.92;66.91;99985.38;5070440;28;20045;-66
2021/12/14 05:00:20;;;;;;;36.78;15.45;;;;;;;-0.90;66.78;99990.56;5069459;28;20055;-67
2021/12/14 05:02:57;;;;;;;37.33;14.43;;;;;;;-0.91;66.70;99981.66;5064626;28;20048;-68
2021/12/14 05:05:38;;;;;;;40.72;15.05;;;;;;;-0.89;66.74;99982.31;5065221;28;20137;-67
2021/12/14 05:10:38;;;;;;;39.20;15.00;;;;;;;-0.93;66.75;99972.16;5062001;28;20127;-66
2021/12/14 05:13:07;;;;;;;35.78;14.30;;;;;;;-0.83;66.56;99980.69;5066551;28;20048;-66
2021/12/14 05:15:36;;;;;;;37.67;14.73;;;;;;;-0.84;66.61;99987.09;5044557;28;20044;-67
2021/12/14 05:18:08;;;;;;;33.92;14.13;;;;;;;-0.85;66.46;99990.81;5067069;28;20040;-67
2021/12/14 05:20:35;;;;;;;36.60;14.10;;;;;;;-0.78;66.58;99990.84;5083719;28;20041;-66
2021/12/14 05:23:04;;;;;;;36.22;15.20;;;;;;;-0.77;66.37;99985.31;5068793;28;20041;-68
2021/12/14 05:25:31;;;;;;;33.03;14.40;;;;;;;-0.81;66.52;99986.69;5060917;28;20136;-68
2021/12/14 05:28:14;;;;;;;40.50;14.60;;;;;;;-0.78;66.48;99994.38;5058659;28;20053;-67
2021/12/14 05:30:46;;;;;;;35.60;14.55;;;;;;;-0.74;66.42;99992.97;5059343;28;20090;-67
2021/12/14 05:33:35;;;;;;;33.38;14.00;;;;;;;-0.77;66.34;99988.00;5064604;28;20143;-68
2021/12/14 05:36:20;;;;;;;39.20;14.88;;;;;;;-0.76;66.44;99992.34;5058656;28;20541;-67
2021/12/14 05:39:25;;;;;;;36.80;14.68;;;;;;;-0.76;66.16;99989.66;5057962;28;20049;-67
2021/12/14 05:45:11;;;;;;;40.83;14.25;;;;;;;-0.69;66.28;99997.75;5060970;28;20460;-67
2021/12/14 05:47:46;;;;;;;42.67;16.63;;;;;;;-0.72;66.39;99998.13;5058412;28;20040;-67
2021/12/14 05:50:46;;;;;;;46.92;16.55;;;;;;;-0.72;66.14;99998.97;5044871;28;20056;-66
2021/12/14 05:53:19;;;;;;;38.70;16.98;;;;;;;-0.76;66.35;100007.59;5064368;28;20049;-67
2021/12/14 05:55:46;;;;;;;45.97;18.20;;;;;;;-0.81;66.30;99994.75;5064416;28;20072;-67
2021/12/14 05:58:15;;;;;;;46.88;19.20;;;;;;;-0.75;66.27;100002.06;5054506;28;20529;-66
2021/12/14 06:00:45;;;;;;;45.13;18.90;;;;;;;-0.73;66.22;99997.31;5060252;28;20060;-66
2021/12/14 06:03:17;;;;;;;45.65;18.88;;;;;;;-0.73;66.18;99991.94;5058279;28;20130;-66
2021/12/14 06:05:43;;;;;;;45.85;18.48;;;;;;;-0.69;66.14;99995.06;5064432;28;20044;-67
2021/12/14 06:08:18;;;;;;;41.70;17.40;;;;;;;-0.70;66.17;100006.84;5065413;28;20127;-64
2021/12/14 06:10:45;;;;;;;44.72;17.10;;;;;;;-0.77;66.18;100005.94;5054952;28;20045;-66
2021/12/14 06:13:17;;;;;;;42.97;16.05;;;;;;;-0.82;66.33;100011.91;5057681;28;20051;-66
2021/12/14 06:15:46;;;;;;;41.28;15.65;;;;;;;-0.91;66.36;100013.06;5052758;28;20061;-66
2021/12/14 06:18:22;;;;;;;42.53;15.35;;;;;;;-0.84;66.46;100013.13;5033259;28;20049;-65
2021/12/14 06:21:29;;;;;;;42.72;16.10;;;;;;;-0.85;66.35;100012.28;5044614;28;20050;-65
2021/12/14 06:23:59;;;;;;;;;;;;;;;-0.84;66.41;100013.94;5060520;28;20047;-64
2021/12/14 06:26:34;;;;;;;43.40;15.10;;;;;;;-0.81;66.29;100018.09;5053254;28;20352;-68
2021/12/14 06:29:03;;;;;;;;;;;;;;;-0.82;66.32;100021.81;5068796;28;20506;-67
2021/12/14 06:31:31;;;;;;;42.00;15.65;;;;;;;-0.81;66.03;100018.91;5043607;28;19952;-66
2021/12/14 06:34:09;;;;;;;48.15;17.45;;;;;;;-0.81;66.22;100023.47;5066288;28;20122;-67
2021/12/14 06:37:14;;;;;;;43.17;16.75;;;;;;;-0.76;66.07;100021.03;5057031;28;20060;-66
2021/12/14 06:39:59;;;;;;;56.22;17.65;;;;;;;-0.72;65.85;100023.13;5010645;28;20061;-65
2021/12/14 06:42:26;;;;;;;45.50;16.75;;;;;;;-0.67;65.78;100014.50;5063550;28;20037;-67
2021/12/14 06:45:04;;;;;;;46.58;16.48;;;;;;;-0.76;66.00;100021.88;5069973;28;20048;-66
2021/12/14 06:47:32;;;;;;;;;;;;;;;-0.74;66.23;100022.50;5042486;28;20048;-66
2021/12/14 06:50:00;;;;;;;44.35;16.40;;;;;;;-0.69;65.86;100023.78;5070349;28;19924;-67
2021/12/14 06:52:27;;;;;;;49.10;16.65;;;;;;;-0.68;65.95;100020.06;5056266;28;20106;-67
2021/12/14 06:55:18;;;;;;;44.28;17.23;;;;;;;-0.65;65.68;100025.88;5063530;28;20579;-65
2021/12/14 06:58:14;;;;;;;48.25;17.02;;;;;;;-0.60;65.64;100018.06;5053520;28;20052;-66
2021/12/14 07:00:45;;;;;;;48.90;17.58;;;;;;;-0.59;65.69;100021.59;5065806;28;20044;-66
2021/12/14 07:03:13;;;;;;;46.28;18.00;;;;;;;-0.60;65.74;100010.00;5056117;28;20480;-65
2021/12/14 07:05:49;;;;;;;44.17;17.58;;;;;;;-0.54;65.69;100012.94;5059458;28;20044;-68
2021/12/14 07:08:23;;;;;;;47.90;18.08;;;;;;;-0.62;65.53;100006.69;5068719;28;20048;-68
2021/12/14 07:10:51;;;;;;;40.53;17.70;;;;;;;-0.64;65.62;100016.78;5050984;28;20041;-75
2021/12/14 07:13:20;;;;;;;43.10;16.88;;;;;;;-0.61;65.85;100012.88;5064938;28;20129;-76
2021/12/14 07:15:48;;;;;;;38.05;17.10;;;;;;;-0.61;65.81;100007.53;5067644;28;20052;-76
2021/12/14 07:18:16;;;;;;;45.28;18.63;;;;;;;-0.61;65.67;100012.88;5049939;28;20505;-75
2021/12/14 07:20:45;;;;;;;38.65;15.88;;;;;;;-0.66;65.80;100009.94;5066949;28;20059;-76
2021/12/14 07:23:21;;;;;;;39.72;16.92;;;;;;;-0.59;65.71;100021.59;5063633;28;20098;-76
2021/12/14 07:25:54;;;;;;;45.17;18.02;;;;;;;-0.52;65.31;100022.44;5042987;28;20037;-76
2021/12/14 07:28:21;;;;;;;39.17;16.13;;;;;;;-0.52;65.39;100017.06;5043866;28;20152;-76
2021/12/14 07:30:50;;;;;;;48.53;17.85;;;;;;;-0.55;65.37;100022.00;5032503;28;20045;-76
2021/12/14 07:33:21;;;;;;;39.80;16.80;;;;;;;-0.54;65.39;100029.06;5066031;28;20072;-76
2021/12/14 07:35:58;;;;;;;37.28;16.88;;;;;;;-0.52;65.25;100027.81;5071501;28;20071;-75
2021/12/14 07:38:32;;;;;;;38.60;16.90;;;;;;;-0.47;65.05;100022.72;5065264;28;20045;-76
2021/12/14 07:41:03;;;;;;;40.78;17.33;;;;;;;-0.43;64.95;100026.66;5054554;28;20050;-76
2021/12/14 07:43:31;;;;;;;40.80;16.52;;;;;;;-0.50;64.96;100028.44;5068495;28;20494;-76
2021/12/14 07:45:59;;;;;;;44.03;17.73;;;;;;;-0.50;65.17;100033.00;5064540;28;20156;-76
2021/12/14 07:48:47;;;;;;;49.75;17.95;;;;;;;-0.44;64.90;100043.81;5061073;28;20051;-75
2021/12/14 07:51:14;;;;;;;43.45;17.83;;;;;;;-0.40;64.83;100040.72;5068269;28;20450;-77
2021/12/14 07:53:44;;;;;;;47.72;17.85;;;;;;;-0.38;64.86;100039.50;5059932;28;20049;-76
2021/12/14 07:56:23;;;;;;;38.78;18.23;;;;;;;-0.33;64.65;100038.88;5069196;28;20048;-78
2021/12/14 07:58:50;;;;;;;44.72;18.10;;;;;;;-0.30;64.64;100041.22;5070840;28;20044;-77
2021/12/14 08:01:16;;;;;;;44.70;17.00;;;;;;;-0.29;64.58;100043.69;5066916;28;20143;-76
2021/12/14 08:03:44;;;;;;;41.95;17.27;;;;;;;-0.36;64.57;100033.91;5069847;28;20078;-76
2021/12/14 08:06:11;;;;;;;;;;;;;;;-0.35;64.81;100044.47;5064201;28;20049;-77
2021/12/14 08:08:44;;;;;;;48.55;19.30;;;;;;;-0.43;64.50;100050.00;5063564;28;19924;-76
2021/12/14 08:12:01;;;;;;;43.38;18.08;;;;;;;-0.45;64.46;100034.09;5064720;28;20109;-75
2021/12/14 08:14:08;;;;;;;50.63;20.13;;;;;;;-0.47;64.54;100036.13;5055401;28;20056;-74
2021/12/14 08:16:42;;;;;;;46.33;18.90;;;;;;;-0.45;64.43;100044.84;5053582;28;20040;-75
2021/12/14 08:19:15;;;;;;;50.08;20.67;;;;;;;-0.52;64.66;100052.00;5061899;28;20048;-75
2021/12/14 08:21:44;;;;;;;51.22;19.35;;;;;;;-0.52;64.44;100056.56;5069457;28;20045;-75
2021/12/14 08:24:11;;;;;;;42.00;17.88;;;;;;;-0.56;64.73;100042.66;5033421;28;20036;-75
2021/12/14 08:26:41;;;;;;;57.65;21.17;;;;;;;-0.61;64.73;100037.06;5067137;28;20147;-74
2021/12/14 08:29:12;;;;;;;52.35;20.98;;;;;;;-0.53;64.42;100044.97;5049748;28;20072;-75
2021/12/14 08:31:42;;;;;;;53.70;20.75;;;;;;;-0.31;64.02;100042.22;5067795;28;20041;-75
2021/12/14 08:34:11;;;;;;;53.05;20.48;;;;;;;-0.20;64.02;100043.53;5049062;28;20041;-76
2021/12/14 08:36:42;;;;;;;48.42;20.23;;;;;;;0.14;63.49;100055.28;5068784;28;20048;-77
2021/12/14 08:39:12;;;;;;;47.85;19.08;;;;;;;0.41;63.15;100053.53;5064106;28;20513;-75
2021/12/14 08:41:47;;;;;;;41.72;18.20;;;;;;;0.67;62.63;100051.13;5068409;28;20060;-75
2021/12/14 08:44:20;;;;;;;45.80;19.10;;;;;;;0.90;62.27;100049.94;5050856;28;20421;-76
2021/12/14 08:46:50;;;;;;;44.95;18.65;;;;;;;1.05;61.86;100042.50;5064761;28;20040;-76
2021/12/14 08:49:19;;;;;;;45.80;18.63;;;;;;;0.98;62.18;100034.41;5059572;28;20110;-75
2021/12/14 08:51:48;;;;;;;49.20;19.50;;;;;;;0.99;62.32;100037.91;5060541;28;20049;-74
2021/12/14 08:54:17;;;;;;;51.47;19.77;;;;;;;0.83;62.32;100037.28;5050262;28;20052;-75
2021/12/14 08:56:47;;;;;;;49.72;19.33;;;;;;;0.83;62.45;100047.25;5069782;28;20048;-76
2021/12/14 08:59:14;;;;;;;52.80;20.45;;;;;;;0.79;62.50;100033.34;5065522;28;20048;-76
2021/12/14 09:01:43;;;;;;;47.90;20.35;;;;;;;0.80;62.47;100035.00;5044464;28;20040;-75
2021/12/14 09:04:15;;;;;;;49.38;19.92;;;;;;;0.67;62.44;100030.44;5071513;28;20059;-76
2021/12/14 09:06:45;;;;;;;48.03;19.58;;;;;;;0.72;62.59;100047.81;5053523;28;20056;-76
2021/12/14 09:09:15;;;;;;;50.97;20.33;;;;;;;0.70;62.58;100045.31;5039515;28;20064;-77
2021/12/14 09:11:45;;;;;;;52.47;20.55;;;;;;;0.75;62.52;100048.25;5067334;28;20048;-69
2021/12/14 09:14:15;;;;;;;51.97;21.02;;;;;;;0.80;62.36;100035.00;5069165;28;20072;-69
2021/12/14 09:16:45;;;;;;;53.42;21.10;;;;;;;0.92;62.01;100037.91;5057087;28;20048;-70
2021/12/14 09:19:16;;;;;;;48.97;18.95;;;;;;;1.26;61.42;100041.47;5060607;28;20044;-70
2021/12/14 09:21:47;;;;;;;49.70;20.38;;;;;;;1.51;60.94;100046.22;5072991;28;20101;-70
2021/12/14 09:24:18;;;;;;;50.45;22.05;;;;;;;1.73;60.74;100043.31;5062010;28;20048;-70
2021/12/14 09:26:50;;;;;;;53.88;21.17;;;;;;;1.82;60.71;100042.03;5058152;28;20113;-69
2021/12/14 09:29:21;;;;;;;48.75;21.48;;;;;;;2.04;60.28;100046.31;5059778;28;20048;-70
2021/12/14 09:31:54;;;;;;;54.47;22.42;;;;;;;2.53;59.46;100035.97;5057041;28;20524;-70
2021/12/14 09:34:25;;;;;;;53.00;22.20;;;;;;;2.82;58.97;100031.03;5058938;28;20040;-69
2021/12/14 09:36:54;;;;;;;51.10;20.92;;;;;;;3.23;58.39;100034.25;5043219;28;20055;-70
2021/12/14 09:39:29;;;;;;;59.05;22.80;;;;;;;3.24;58.37;100017.81;5056932;28;20068;-70
2021/12/14 09:42:00;;;;;;;53.80;22.27;;;;;;;3.24;58.11;100031.31;5060742;28;20044;-70
2021/12/14 09:44:32;;;;;;;50.92;22.90;;;;;;;3.34;57.97;100038.91;5061656;28;20045;-69
2021/12/14 09:47:03;;;;;;;57.40;23.20;;;;;;;3.13;57.89;100042.84;5064822;28;20068;-70
2021/12/14 09:49:29;;;;;;;63.03;23.85;;;;;;;2.87;58.24;100033.03;5062474;28;20425;-69
2021/12/14 09:52:00;;;;;;;64.20;24.13;;;;;;;2.76;58.15;100030.00;5054983;28;20053;-70
2021/12/14 09:54:29;;;;;;;69.13;25.27;;;;;;;2.61;58.36;100041.09;5064789;28;20063;-69
2021/12/14 09:57:00;;;;;;;61.13;24.48;;;;;;;2.44;58.49;100034.53;5058901;28;20045;-70
2021/12/14 09:59:27;;;;;;;64.93;26.10;;;;;;;2.24;58.83;100032.78;5069775;28;20040;-69
2021/12/14 10:01:58;;;;;;;70.63;25.90;;;;;;;2.06;58.77;100033.44;5064191;28;20189;-69
2021/12/14 10:04:27;;;;;;;64.43;24.77;;;;;;;1.93;59.25;100026.25;5066192;28;20079;-67
2021/12/14 10:06:54;;;;;;;66.95;25.25;;;;;;;1.78;59.25;100038.09;5059317;28;20048;-67
2021/12/14 10:09:26;;;;;;;62.03;25.02;;;;;;;1.72;59.32;100035.41;5048353;28;20521;-68
2021/12/14 10:14:23;;;;;;;65.30;23.92;;;;;;;1.50;59.44;100023.00;5056697;28;20114;-68
2021/12/14 10:16:50;;;;;;;;;;;;;;;1.50;59.34;100033.78;5063192;28;20044;-68
2021/12/14 10:19:18;;;;;;;57.83;21.67;;;;;;;1.43;59.63;100035.66;5059786;28;19932;-68
2021/12/14 10:21:47;;;;;;;62.75;22.20;;;;;;;1.33;59.71;100033.41;5062365;28;20044;-69
2021/12/14 10:24:14;;;;;;;56.85;22.60;;;;;;;1.36;59.75;100027.59;5067443;28;20555;-67
2021/12/14 10:26:45;;;;;;;56.37;21.23;;;;;;;1.34;59.63;100032.34;5065934;28;20143;-68
2021/12/14 10:29:14;;;;;;;56.13;22.85;;;;;;;1.25;59.89;100036.28;5062807;28;20056;-68
2021/12/14 10:31:45;;;;;;;55.50;21.55;;;;;;;1.22;60.11;100039.41;5060196;28;20082;-68
2021/12/14 10:34:14;;;;;;;56.83;21.40;;;;;;;1.17;60.02;100042.72;5035196;28;20073;-68
2021/12/14 10:36:45;;;;;;;58.65;22.00;;;;;;;1.16;59.92;100038.34;5053588;28;20045;-68
2021/12/14 10:44:37;;;;;;;58.50;22.40;;;;;;;1.20;60.04;100031.50;5074593;28;20052;-68
2021/12/14 10:47:04;;;;;;;48.08;20.60;;;;;;;1.26;59.74;100032.56;5055935;28;20047;-68
2021/12/14 10:49:31;;;;;;;48.25;19.08;;;;;;;1.27;59.92;100028.81;5062622;28;20478;-68
2021/12/14 10:52:03;;;;;;;52.78;20.92;;;;;;;1.24;59.92;100030.06;5051697;28;20041;-69
2021/12/14 10:54:29;;;;;;;50.47;22.17;;;;;;;1.19;59.99;100039.81;5060765;28;20041;-67
2021/12/14 10:56:58;;;;;;;62.17;21.50;;;;;;;1.18;59.94;100033.59;5062526;28;20045;-69
2021/12/14 10:59:30;;;;;;;52.58;22.15;;;;;;;1.15;60.04;100033.16;5064072;28;20551;-70
2021/12/14 11:01:56;;;;;;;54.63;21.83;;;;;;;1.06;60.39;100037.94;5089315;28;20063;-71
2021/12/14 11:04:28;;;;;;;42.25;18.67;;;;;;;1.02;60.26;100032.16;5069026;28;20513;-73
2021/12/14 11:06:58;;;;;;;50.72;20.05;;;;;;;1.04;60.27;100023.84;5052403;28;20048;-73
2021/12/14 11:09:42;;;;;;;45.13;18.15;;;;;;;0.98;60.27;100029.03;5045571;28;20044;-73
2021/12/14 11:12:16;;;;;;;43.72;18.92;;;;;;;0.77;60.40;100016.56;5063650;28;20048;-73
2021/12/14 11:14:46;;;;;;;44.20;19.13;;;;;;;0.83;60.55;100029.19;5065909;28;20053;-75
2021/12/14 11:20:05;;;;;;;54.65;20.40;;;;;;;0.70;60.87;100032.72;5069456;28;20052;-74
2021/12/14 11:22:35;;;;;;;50.58;19.17;;;;;;;0.64;60.63;100021.94;5070701;28;20059;-74
2021/12/14 11:25:06;;;;;;;43.80;18.15;;;;;;;0.62;60.79;100026.69;5059281;28;20049;-74
2021/12/14 11:27:36;;;;;;;52.25;19.60;;;;;;;0.62;60.71;100021.31;5063063;28;20406;-74
2021/12/14 11:30:18;;;;;;;54.20;18.73;;;;;;;0.64;60.64;100014.69;5041423;28;20067;-73
2021/12/14 11:32:47;;;;;;;41.00;18.13;;;;;;;0.66;60.49;100004.56;5038239;28;20048;-74
2021/12/14 11:35:24;;;;;;;46.38;19.27;;;;;;;0.66;60.54;99992.94;5065940;28;20525;-74
2021/12/14 11:37:54;;;;;;;44.65;19.90;;;;;;;0.64;60.65;100011.16;5067076;28;20049;-74
2021/12/14 11:40:23;;;;;;;45.72;19.77;;;;;;;0.61;60.86;100004.31;5062034;28;20048;-73
2021/12/14 11:42:50;;;;;;;52.13;21.90;;;;;;;0.61;60.78;100007.00;5075874;28;20052;-73
2021/12/14 11:45:20;;;;;;;48.95;19.88;;;;;;;0.62;61.05;100011.34;5059165;28;20048;-73
2021/12/14 11:47:49;;;;;;;47.63;20.75;;;;;;;0.59;60.76;100005.56;5055184;28;20061;-74
2021/12/14 11:50:22;;;;;;;47.95;20.00;;;;;;;0.58;60.73;100001.22;5057095;28;20087;-72
2021/12/14 11:52:52;;;;;;;49.03;20.60;;;;;;;0.53;60.73;99996.44;5071442;28;20079;-73
2021/12/14 11:55:30;;;;;;;54.72;21.25;;;;;;;0.52;60.92;100002.88;5070739;28;20094;-72
2021/12/14 11:58:30;;;;;;;48.58;20.80;;;;;;;0.53;60.83;100005.34;5063265;28;20049;-73
2021/12/14 12:01:11;;;;;;;55.25;21.73;;;;;;;0.54;60.97;100007.00;5044893;28;20136;-73
2021/12/14 12:03:43;;;;;;;44.55;20.13;;;;;;;0.51;61.16;99995.81;5059244;28;20516;-74
2021/12/14 12:06:32;;;;;;;48.47;22.08;;;;;;;0.35;61.32;99986.25;5067537;28;20536;-73
2021/12/14 12:11:52;;;;;;;55.72;21.85;;;;;;;0.33;61.42;99999.91;5063950;28;20041;-73
2021/12/14 12:14:22;;;;;;;58.10;21.55;;;;;;;0.34;61.52;100014.19;5023850;28;20505;-72
2021/12/14 12:16:52;;;;;;;46.03;20.85;;;;;;;0.29;61.70;100012.09;5061665;28;20089;-74
2021/12/14 12:19:21;;;;;;;54.85;22.35;;;;;;;0.25;61.71;100010.84;5073602;28;20056;-75
2021/12/14 12:21:48;;;;;;;54.53;23.40;;;;;;;0.19;61.65;100003.59;5057445;28;20067;-73
2021/12/14 12:24:35;;;;;;;53.50;21.33;;;;;;;0.25;61.70;100014.38;5063862;28;20045;-73